sensor_id;sensor_type;location;lat;lon;timestamp;P1;durP1;ratioP1;P2;durP2;ratioP2
17955;SDS011;27666;51.498;11.966;2023-09-30T17:39:27;4.80;;;3.53;;
17955;SDS011;27666;51.498;11.966;2023-09-30T17:42:14;12.30;;;3.13;;
17955;SDS011;27666;51.498;11.966;2023-09-30T17:45:01;9.40;;;3.60;;
17955;SDS011;27666;51.498;11.966;2023-09-30T17:47:48;7.90;;;3.35;;
17955;SDS011;27666;51.498;11.966;2023-09-30T17:50:35;6.60;;;3.08;;
17955;SDS011;27666;51.498;11.966;2023-09-30T17:53:21;6.53;;;2.97;;
17955;SDS011;27666;51.498;11.966;2023-09-30T17:56:13;8.93;;;3.47;;
17955;SDS011;27666;51.498;11.966;2023-09-30T17:59:00;6.57;;;2.90;;
17955;SDS011;27666;51.498;11.966;2023-09-30T18:01:47;6.38;;;3.00;;
17955;SDS011;27666;51.498;11.966;2023-09-30T18:04:34;6.25;;;3.00;;
17955;SDS011;27666;51.498;11.966;2023-09-30T18:07:26;8.57;;;3.42;;
17955;SDS011;27666;51.498;11.966;2023-09-30T18:10:13;6.97;;;2.92;;
17955;SDS011;27666;51.498;11.966;2023-09-30T18:13:05;9.35;;;4.07;;
17955;SDS011;27666;51.498;11.966;2023-09-30T18:15:52;8.23;;;3.47;;
17955;SDS011;27666;51.498;11.966;2023-09-30T18:18:39;12.13;;;4.13;;
17955;SDS011;27666;51.498;11.966;2023-09-30T18:21:26;10.77;;;4.50;;
17955;SDS011;27666;51.498;11.966;2023-09-30T18:24:13;11.60;;;5.35;;
17955;SDS011;27666;51.498;11.966;2023-09-30T18:27:00;15.10;;;4.70;;
17955;SDS011;27666;51.498;11.966;2023-09-30T18:29:48;9.23;;;4.78;;
17955;SDS011;27666;51.498;11.966;2023-09-30T18:32:35;7.68;;;4.13;;
17955;SDS011;27666;51.498;11.966;2023-09-30T18:35:23;8.23;;;3.88;;
17955;SDS011;27666;51.498;11.966;2023-09-30T18:38:09;9.98;;;5.25;;
17955;SDS011;27666;51.498;11.966;2023-09-30T18:40:58;18.08;;;4.65;;
17955;SDS011;27666;51.498;11.966;2023-09-30T18:43:44;9.95;;;3.67;;
17955;SDS011;27666;51.498;11.966;2023-09-30T18:46:35;7.70;;;3.75;;
17955;SDS011;27666;51.498;11.966;2023-09-30T18:49:21;6.95;;;3.92;;
17955;SDS011;27666;51.498;11.966;2023-09-30T18:52:08;7.65;;;3.92;;
17955;SDS011;27666;51.498;11.966;2023-09-30T18:54:54;15.32;;;6.93;;
17955;SDS011;27666;51.498;11.966;2023-09-30T18:57:41;13.50;;;5.05;;
17955;SDS011;27666;51.498;11.966;2023-09-30T19:00:28;17.92;;;6.45;;
17955;SDS011;27666;51.498;11.966;2023-09-30T19:03:17;13.75;;;5.10;;
17955;SDS011;27666;51.498;11.966;2023-09-30T19:06:04;15.68;;;9.55;;
17955;SDS011;27666;51.498;11.966;2023-09-30T19:08:50;21.00;;;10.88;;
17955;SDS011;27666;51.498;11.966;2023-09-30T19:11:37;10.38;;;5.80;;
17955;SDS011;27666;51.498;11.966;2023-09-30T19:14:24;9.15;;;4.88;;
17955;SDS011;27666;51.498;11.966;2023-09-30T19:17:13;7.88;;;4.40;;
17955;SDS011;27666;51.498;11.966;2023-09-30T19:20:01;11.10;;;4.82;;
17955;SDS011;27666;51.498;11.966;2023-09-30T19:22:48;17.77;;;9.70;;
17955;SDS011;27666;51.498;11.966;2023-09-30T19:25:36;26.10;;;12.98;;
17955;SDS011;27666;51.498;11.966;2023-09-30T19:28:24;13.00;;;5.85;;
17955;SDS011;27666;51.498;11.966;2023-09-30T19:31:10;8.43;;;4.25;;
17955;SDS011;27666;51.498;11.966;2023-09-30T19:33:56;8.75;;;3.70;;
17955;SDS011;27666;51.498;11.966;2023-09-30T19:36:45;13.15;;;4.15;;
17955;SDS011;27666;51.498;11.966;2023-09-30T19:39:32;11.70;;;4.45;;
17955;SDS011;27666;51.498;11.966;2023-09-30T19:42:19;9.65;;;5.10;;
17955;SDS011;27666;51.498;11.966;2023-09-30T19:45:06;10.82;;;4.60;;
17955;SDS011;27666;51.498;11.966;2023-09-30T19:47:53;7.80;;;4.60;;
17955;SDS011;27666;51.498;11.966;2023-09-30T19:50:40;16.33;;;9.13;;
17955;SDS011;27666;51.498;11.966;2023-09-30T19:53:28;13.15;;;7.43;;
17955;SDS011;27666;51.498;11.966;2023-09-30T19:56:15;13.48;;;6.85;;
17955;SDS011;27666;51.498;11.966;2023-09-30T19:59:02;15.75;;;7.93;;
17955;SDS011;27666;51.498;11.966;2023-09-30T20:01:49;20.13;;;10.77;;
17955;SDS011;27666;51.498;11.966;2023-09-30T20:04:37;16.45;;;9.00;;
17955;SDS011;27666;51.498;11.966;2023-09-30T20:07:24;18.52;;;8.52;;
17955;SDS011;27666;51.498;11.966;2023-09-30T20:10:13;20.60;;;8.23;;
